Accueil
METAR-TAF:

METAR-TAF

Aéroports :

Aniak, Alaska, États-Unis

latitude: 61-34-53N, longitude: 159-32-34W, altitude: 27 m

Observation

Le bulletin a été fait il y a 7 minutes, à 22:56 UTC
Vent 3 kt de est
Température -15°C
Humidité 85%
Pression 1011 hPa
Visibilité: 16.1 km
Ciel clair

METAR: PANI 222256Z AUTO 10003KT 10SM CLR M15/M17 A2986 RMK AO2 SNE02 SLP115 P0000 T11501172 FZRANO

Heure: 14:03 (23:03 UTC)


TAF: absent

Observations et prévisions météorologiques de plus de 4000 aéroports (messages METAR et TAF).

Les stations disponibles sont représentées par des disques jaunes et rouges sur la carte.

Passer la souris dessus pour voir le nom de la station.

Cliquer dessus pour voir les observations et prévisions météorologiques.

Pour changer de carte: cliquez sur les boutons verts avec une croix noire pour zoomer, sur le bouton vert avec un tiret pour effectuer un zoom arrière, ou sur les flèches vertes pour les cartes adjacentes.


METAR-TAF: